Nearby METAR Reports

 

KOXC - Oxford/Waterbury, Connecticut, USA
Distance from station: SE 8mi, 12km
Updated: Thu, 24-Jan-2019 5:51am EST
Light rain, Mist, Overcast
Light rain, Mist, Overcast
 Wind from S
Wind: S 15 mph , 24 km/h
Temperature: 48°F , 9°C
Wind Chill: 42°F , 6°C
Dew Point: 48°F , 9°C
Humidity: 100%
Barometer: 29.73 inHg , 1006.8 hPa
Summary: Light rain, Mist
Clouds: Overcast
Visibility: 1 1/2 miles , 2.4 km
Cloud details: Overcast 300 ft
2019/01/24 10:51 KOXC 241051Z 19013KT 1 1/2SM -RA BR OVC003 09/09 A2973 RMK AO2 SLP083 P0008 T00890089
KDXR - Danbury, Connecticut, USA
Distance from station: SW 19mi, 30km
Updated: Thu, 24-Jan-2019 5:53am EST
Light rain, Overcast
Light rain, Overcast
 Wind from SSW
Wind: SSW 13 mph , 20 km/h, Gust: 25 mph , 41 km/h
Temperature: 52°F , 11°C
Dew Point: 48°F , 9°C
Humidity: 88%
Barometer: 29.72 inHg , 1006.4 hPa
Summary: Light rain
Clouds: Overcast
Visibility: 7 miles , 11 km
Cloud details: Overcast 900 ft
2019/01/24 10:53 KDXR 241053Z AUTO 20011G22KT 160V220 7SM -RA OVC009 11/09 A2972 RMK AO2 PK WND 21033/1024 RAE0958B17 SLP064 P0002 T01110094
 
KMMK - Meriden, Connecticut, USA
Distance from station: E 20mi, 33km
Updated: Thu, 24-Jan-2019 6:37am EST
Light rain, Mist, Overcast
Light rain, Mist, Overcast
 Wind from S
Wind: S 9 mph , 15 km/h
Temperature: 46°F , 8°C
Wind Chill: 41°F , 5°C
Dew Point: 46°F , 8°C
Humidity: 100%
Barometer: 29.73 inHg , 1006.8 hPa
Summary: Light rain, Mist
Clouds: Overcast
Visibility: 2 1/2 miles , 4 km
Cloud details: Overcast 300 ft
2019/01/24 11:37 KMMK 241137Z AUTO 17008KT 2 1/2SM -RA BR OVC003 08/08 A2973 RMK AO2 VIS 1 3/4V3 P0002 T00830078 $
KBDR - Bridgeport, Connecticut, USA
Distance from station: S 27mi, 44km
Updated: Thu, 24-Jan-2019 6:36am EST
Light rain, Mist, Overcast
Light rain, Mist, Overcast
 Wind from WSW
Wind: WSW 6 mph , 9 km/h
Temperature: 46°F , 8°C
Wind Chill: 43°F , 6°C
Dew Point: 45°F , 7°C
Humidity: 93%
Barometer: 29.72 inHg , 1006.4 hPa
Summary: Light rain, Mist
Clouds: Overcast
Visibility: 2 1/2 miles , 4 km
Cloud details: Overcast 400 ft
2019/01/24 11:36 KBDR 241136Z 24005KT 2 1/2SM -RA BR OVC004 08/07 A2972 RMK AO2 RAB36 PRESFR P0000 T00780072
 
KHVN - New Haven/Tweed, Connecticut, USA
Distance from station: SE 27mi, 44km
Updated: Thu, 24-Jan-2019 6:06am EST
Mist, Overcast
Mist, Overcast
 Wind from SSW
Wind: SSW 6 mph , 9 km/h
Temperature: 46°F , 8°C
Wind Chill: 43°F , 6°C
Dew Point: 46°F , 8°C
Humidity: 100%
Barometer: 29.75 inHg , 1007.5 hPa
Summary: Mist
Clouds: Overcast
Visibility: 4 miles , 6 km
Cloud details: Overcast 1000 ft
2019/01/24 11:06 KHVN 241106Z 21005KT 4SM BR OVC010 08/08 A2975 RMK AO2 CIG 007V013 T00830078
KHFD - Hartford/Brainar, Connecticut, USA
Distance from station: ENE 32mi, 52km
Updated: Thu, 24-Jan-2019 6:32am EST
Light rain, Overcast
Light rain, Overcast
 Wind from S
Wind: S 16 mph , 26 km/h, Gust: 21 mph , 33 km/h
Temperature: 50°F , 10°C
Wind Chill: 44°F , 7°C
Dew Point: 48°F , 9°C
Humidity: 94%
Barometer: 29.72 inHg , 1006.4 hPa
Summary: Light rain
Clouds: Overcast
Visibility: 7 miles , 11 km
Cloud details: Overcast 800 ft
2019/01/24 11:32 KHFD 241132Z 19014G18KT 7SM -RA OVC008 10/09 A2972 RMK AO2 P0004 T01000089
 
KPOU - Poughkeepsie, New York, USA
Distance from station: W 35mi, 56km
Updated: Thu, 24-Jan-2019 6:02am EST
Light rain, Overcast
Light rain, Overcast
 Wind from varies
Wind: varies 6 mph , 9 km/h
Temperature: 54°F , 12°C
Dew Point: 48°F , 9°C
Humidity: 82%
Barometer: 29.63 inHg , 1003.4 hPa
Summary: Light rain
Clouds: Overcast
Visibility: 6 miles , 10 km
Cloud details: Partly cloudy 1500 ft
Mostly cloudy 5000 ft
Overcast 7500 ft
2019/01/24 11:02 KPOU 241102Z AUTO VRB05KT 6SM -RA SCT015 BKN050 OVC075 12/09 A2963 RMK AO2 P0001 T01220094
KBDL - Windsor Locks, Connecticut, USA
Distance from station: NE 38mi, 62km
Updated: Thu, 24-Jan-2019 5:51am EST
Light rain, Overcast
Light rain, Overcast
 Wind from S
Wind: S 15 mph , 24 km/h
Temperature: 46°F , 8°C
Wind Chill: 40°F , 4°C
Dew Point: 46°F , 8°C
Humidity: 100%
Barometer: 29.72 inHg , 1006.4 hPa
Summary: Light rain
Clouds: Overcast
Visibility: 3 miles , 5 km
Cloud details: Mostly cloudy 500 ft
Overcast 1300 ft
2019/01/24 10:51 KBDL 241051Z 18013KT 3SM -RA BKN005 OVC013 08/08 A2972 RMK AO2 SFC VIS 9 RAB0953 SLP065 P0003 T00830083
 
KSNC - Chester, Connecticut, USA
Distance from station: ESE 39mi, 63km
Updated: Thu, 24-Jan-2019 6:35am EST
Mist, Overcast
Mist, Overcast
 Wind from S
Wind: S 14 mph , 22 km/h, Gust: 20 mph , 31 km/h
Temperature: 52°F , 11°C
Dew Point: 50°F , 10°C
Humidity: 94%
Barometer: 29.75 inHg , 1007.5 hPa
Summary: Mist
Clouds: Overcast
Visibility: 5 miles , 8 km
Cloud details: Overcast 600 ft
2019/01/24 11:35 KSNC 241135Z AUTO 19012G17KT 160V220 5SM BR OVC006 11/10 A2975 RMK AO2
KHPN - White Plains, New York, USA
Distance from station: SW 42mi, 67km
Updated: Thu, 24-Jan-2019 6:10am EST
Light rain, Fog, Overcast
Light rain, Fog, Overcast
 Wind from S
Wind: S 17 mph , 28 km/h, Gust: 25 mph , 41 km/h
Temperature: 50°F , 10°C
Wind Chill: 44°F , 7°C
Dew Point: 48°F , 9°C
Humidity: 94%
Barometer: 29.70 inHg , 1005.8 hPa
Summary: Light rain, Fog
Clouds: Overcast
Visibility: 1/4 mile , 0.4 km
Cloud details: Overcast 100 ft
2019/01/24 11:10 KHPN 241110Z 17015G22KT 1/4SM R16/3500VP6000FT -RA FG VV001 10/09 A2970 RMK AO2 P0000 T01000094
 
KSWF - Newburgh/Stewart, New York, USA
Distance from station: W 45mi, 72km
Updated: Thu, 24-Jan-2019 5:45am EST
Light rain, Mist, Overcast
Light rain, Mist, Overcast
 Wind from SSW
Wind: SSW 14 mph , 22 km/h
Temperature: 50°F , 10°C
Wind Chill: 45°F , 7°C
Dew Point: 50°F , 10°C
Humidity: 100%
Barometer: 29.65 inHg , 1004.1 hPa
Summary: Light rain, Mist
Clouds: Overcast
Visibility: 4 miles , 6 km
Cloud details: Mostly cloudy 1200 ft
Overcast 2000 ft
2019/01/24 10:45 KSWF 241045Z 20012KT 4SM -RA BR BKN012 OVC020 10/10 A2965 RMK PRESFR
KBAF - Westfield, Massachusetts, USA
Distance from station: NNE 50mi, 80km
Updated: Thu, 24-Jan-2019 5:53am EST
Overcast
Overcast
 Wind from S
Wind: S 14 mph , 22 km/h
Temperature: 48°F , 9°C
Wind Chill: 42°F , 6°C
Dew Point: 46°F , 8°C
Humidity: 94%
Barometer: 29.69 inHg , 1005.4 hPa
Clouds: Overcast
Visibility: 10 miles , 16 km
Cloud details: Mostly cloudy 800 ft
Overcast 1200 ft
2019/01/24 10:53 KBAF 241053Z AUTO 17012KT 10SM BKN008 OVC012 09/08 A2969 RMK AO2 RAE26 SLP059 P0001 T00940083